sensor_id;sensor_type;location;lat;lon;timestamp;P1;durP1;ratioP1;P2;durP2;ratioP2
52186;SDS011;38161;53.020;6.598;2024-03-02T00:00:11;4.93;;;2.92;;
52186;SDS011;38161;53.020;6.598;2024-03-02T00:02:44;5.82;;;2.80;;
52186;SDS011;38161;53.020;6.598;2024-03-02T00:05:11;4.80;;;2.60;;
52186;SDS011;38161;53.020;6.598;2024-03-02T00:07:41;5.45;;;2.85;;
52186;SDS011;38161;53.020;6.598;2024-03-02T00:10:09;5.65;;;3.22;;
52186;SDS011;38161;53.020;6.598;2024-03-02T00:12:37;4.43;;;2.65;;
52186;SDS011;38161;53.020;6.598;2024-03-02T00:17:55;4.75;;;2.65;;
52186;SDS011;38161;53.020;6.598;2024-03-02T00:20:22;7.20;;;3.20;;
52186;SDS011;38161;53.020;6.598;2024-03-02T00:22:48;5.65;;;2.65;;
52186;SDS011;38161;53.020;6.598;2024-03-02T00:25:19;5.10;;;3.00;;
52186;SDS011;38161;53.020;6.598;2024-03-02T00:27:48;5.33;;;2.97;;
52186;SDS011;38161;53.020;6.598;2024-03-02T00:30:39;6.15;;;2.75;;
52186;SDS011;38161;53.020;6.598;2024-03-02T00:33:36;5.63;;;2.65;;
52186;SDS011;38161;53.020;6.598;2024-03-02T00:36:05;4.85;;;2.72;;
52186;SDS011;38161;53.020;6.598;2024-03-02T00:38:32;6.60;;;2.80;;
52186;SDS011;38161;53.020;6.598;2024-03-02T00:41:00;4.65;;;2.67;;
52186;SDS011;38161;53.020;6.598;2024-03-02T00:46:10;4.70;;;2.85;;
52186;SDS011;38161;53.020;6.598;2024-03-02T00:48:38;5.82;;;3.10;;
52186;SDS011;38161;53.020;6.598;2024-03-02T00:51:07;4.72;;;2.80;;
52186;SDS011;38161;53.020;6.598;2024-03-02T00:53:33;4.93;;;3.20;;
52186;SDS011;38161;53.020;6.598;2024-03-02T00:55:59;6.32;;;3.13;;
52186;SDS011;38161;53.020;6.598;2024-03-02T00:58:26;6.35;;;3.10;;
52186;SDS011;38161;53.020;6.598;2024-03-02T01:00:52;6.85;;;3.00;;
52186;SDS011;38161;53.020;6.598;2024-03-02T01:03:18;5.28;;;2.85;;
52186;SDS011;38161;53.020;6.598;2024-03-02T01:05:44;5.40;;;2.75;;
52186;SDS011;38161;53.020;6.598;2024-03-02T01:08:10;5.32;;;3.03;;
52186;SDS011;38161;53.020;6.598;2024-03-02T01:10:36;5.22;;;2.90;;
52186;SDS011;38161;53.020;6.598;2024-03-02T01:13:02;6.50;;;2.90;;
52186;SDS011;38161;53.020;6.598;2024-03-02T01:15:28;6.93;;;3.38;;
52186;SDS011;38161;53.020;6.598;2024-03-02T01:17:54;4.00;;;2.67;;
52186;SDS011;38161;53.020;6.598;2024-03-02T01:20:19;6.90;;;3.17;;
52186;SDS011;38161;53.020;6.598;2024-03-02T01:22:46;5.43;;;3.30;;
52186;SDS011;38161;53.020;6.598;2024-03-02T01:25:12;5.03;;;2.93;;
52186;SDS011;38161;53.020;6.598;2024-03-02T01:27:38;4.85;;;3.42;;
52186;SDS011;38161;53.020;6.598;2024-03-02T01:30:04;4.88;;;2.72;;
52186;SDS011;38161;53.020;6.598;2024-03-02T01:32:31;5.20;;;2.88;;
52186;SDS011;38161;53.020;6.598;2024-03-02T01:34:57;5.90;;;3.33;;
52186;SDS011;38161;53.020;6.598;2024-03-02T01:37:23;5.38;;;3.28;;
52186;SDS011;38161;53.020;6.598;2024-03-02T01:39:48;5.57;;;3.30;;
52186;SDS011;38161;53.020;6.598;2024-03-02T01:42:14;5.37;;;3.20;;
52186;SDS011;38161;53.020;6.598;2024-03-02T01:44:40;6.95;;;3.33;;
52186;SDS011;38161;53.020;6.598;2024-03-02T01:47:06;5.25;;;3.25;;
52186;SDS011;38161;53.020;6.598;2024-03-02T01:49:32;5.60;;;3.28;;
52186;SDS011;38161;53.020;6.598;2024-03-02T01:54:25;6.38;;;3.35;;
52186;SDS011;38161;53.020;6.598;2024-03-02T01:56:50;5.38;;;3.10;;
52186;SDS011;38161;53.020;6.598;2024-03-02T01:59:16;7.20;;;3.13;;
52186;SDS011;38161;53.020;6.598;2024-03-02T02:01:43;5.97;;;3.00;;
52186;SDS011;38161;53.020;6.598;2024-03-02T02:04:08;8.80;;;3.83;;
52186;SDS011;38161;53.020;6.598;2024-03-02T02:06:34;4.78;;;3.33;;
52186;SDS011;38161;53.020;6.598;2024-03-02T02:09:00;6.38;;;3.65;;
52186;SDS011;38161;53.020;6.598;2024-03-02T02:11:26;6.93;;;3.90;;
52186;SDS011;38161;53.020;6.598;2024-03-02T02:13:52;6.88;;;3.50;;
52186;SDS011;38161;53.020;6.598;2024-03-02T02:16:20;6.18;;;3.58;;
52186;SDS011;38161;53.020;6.598;2024-03-02T02:18:46;6.13;;;3.25;;
52186;SDS011;38161;53.020;6.598;2024-03-02T02:21:12;6.17;;;3.40;;
52186;SDS011;38161;53.020;6.598;2024-03-02T02:23:38;7.60;;;3.55;;
52186;SDS011;38161;53.020;6.598;2024-03-02T02:26:04;6.40;;;3.47;;
52186;SDS011;38161;53.020;6.598;2024-03-02T02:28:30;5.07;;;3.03;;
52186;SDS011;38161;53.020;6.598;2024-03-02T02:30:56;4.78;;;3.17;;
52186;SDS011;38161;53.020;6.598;2024-03-02T02:33:21;5.90;;;3.30;;
52186;SDS011;38161;53.020;6.598;2024-03-02T02:35:47;5.35;;;3.05;;
52186;SDS011;38161;53.020;6.598;2024-03-02T02:38:13;6.43;;;3.47;;
52186;SDS011;38161;53.020;6.598;2024-03-02T02:40:39;6.55;;;3.53;;
52186;SDS011;38161;53.020;6.598;2024-03-02T02:43:05;5.03;;;3.53;;
52186;SDS011;38161;53.020;6.598;2024-03-02T02:45:32;5.45;;;3.13;;
52186;SDS011;38161;53.020;6.598;2024-03-02T02:47:57;6.07;;;3.42;;
52186;SDS011;38161;53.020;6.598;2024-03-02T02:50:23;5.13;;;3.10;;
52186;SDS011;38161;53.020;6.598;2024-03-02T02:52:49;5.50;;;3.13;;
52186;SDS011;38161;53.020;6.598;2024-03-02T02:55:15;6.47;;;3.22;;
52186;SDS011;38161;53.020;6.598;2024-03-02T02:57:41;6.40;;;3.30;;
52186;SDS011;38161;53.020;6.598;2024-03-02T03:02:36;6.30;;;2.90;;
52186;SDS011;38161;53.020;6.598;2024-03-02T03:05:09;5.15;;;2.78;;
52186;SDS011;38161;53.020;6.598;2024-03-02T03:07:36;6.90;;;2.85;;
52186;SDS011;38161;53.020;6.598;2024-03-02T03:12:29;6.75;;;2.88;;
52186;SDS011;38161;53.020;6.598;2024-03-02T03:14:56;4.85;;;2.63;;
52186;SDS011;38161;53.020;6.598;2024-03-02T03:17:22;4.35;;;2.65;;
52186;SDS011;38161;53.020;6.598;2024-03-02T03:19:48;5.22;;;2.72;;
52186;SDS011;38161;53.020;6.598;2024-03-02T03:24:40;4.85;;;2.65;;
52186;SDS011;38161;53.020;6.598;2024-03-02T03:27:06;4.67;;;2.80;;
52186;SDS011;38161;53.020;6.598;2024-03-02T03:29:32;5.28;;;2.63;;
52186;SDS011;38161;53.020;6.598;2024-03-02T03:31:57;5.70;;;2.93;;
52186;SDS011;38161;53.020;6.598;2024-03-02T03:34:23;5.37;;;3.20;;
52186;SDS011;38161;53.020;6.598;2024-03-02T03:36:49;6.05;;;3.00;;
52186;SDS011;38161;53.020;6.598;2024-03-02T03:39:15;3.95;;;2.45;;
52186;SDS011;38161;53.020;6.598;2024-03-02T03:41:41;5.03;;;2.70;;
52186;SDS011;38161;53.020;6.598;2024-03-02T03:44:06;4.82;;;2.85;;
52186;SDS011;38161;53.020;6.598;2024-03-02T03:46:32;4.13;;;2.50;;
52186;SDS011;38161;53.020;6.598;2024-03-02T03:48:58;4.82;;;2.85;;
52186;SDS011;38161;53.020;6.598;2024-03-02T03:51:24;5.22;;;2.90;;
52186;SDS011;38161;53.020;6.598;2024-03-02T03:53:50;4.90;;;2.65;;
52186;SDS011;38161;53.020;6.598;2024-03-02T03:56:15;6.03;;;2.72;;
52186;SDS011;38161;53.020;6.598;2024-03-02T03:58:41;5.33;;;2.80;;
52186;SDS011;38161;53.020;6.598;2024-03-02T04:01:07;5.23;;;2.80;;
52186;SDS011;38161;53.020;6.598;2024-03-02T04:03:33;7.10;;;3.40;;
52186;SDS011;38161;53.020;6.598;2024-03-02T04:05:59;5.32;;;2.70;;
52186;SDS011;38161;53.020;6.598;2024-03-02T04:08:24;5.47;;;2.87;;
52186;SDS011;38161;53.020;6.598;2024-03-02T04:10:50;4.70;;;3.00;;
52186;SDS011;38161;53.020;6.598;2024-03-02T04:13:16;5.63;;;2.83;;
52186;SDS011;38161;53.020;6.598;2024-03-02T04:15:42;4.90;;;2.70;;
52186;SDS011;38161;53.020;6.598;2024-03-02T04:18:07;4.57;;;2.60;;
52186;SDS011;38161;53.020;6.598;2024-03-02T04:20:33;7.45;;;3.03;;
52186;SDS011;38161;53.020;6.598;2024-03-02T04:22:59;4.83;;;2.90;;
52186;SDS011;38161;53.020;6.598;2024-03-02T04:25:25;4.57;;;2.70;;
52186;SDS011;38161;53.020;6.598;2024-03-02T04:27:50;6.10;;;2.57;;
52186;SDS011;38161;53.020;6.598;2024-03-02T04:30:16;4.57;;;2.70;;
52186;SDS011;38161;53.020;6.598;2024-03-02T04:32:42;4.55;;;2.53;;
52186;SDS011;38161;53.020;6.598;2024-03-02T04:35:11;4.75;;;2.40;;
52186;SDS011;38161;53.020;6.598;2024-03-02T04:37:37;3.38;;;2.13;;
52186;SDS011;38161;53.020;6.598;2024-03-02T04:40:04;5.40;;;2.45;;
52186;SDS011;38161;53.020;6.598;2024-03-02T04:42:33;4.80;;;2.78;;
52186;SDS011;38161;53.020;6.598;2024-03-02T04:44:59;5.47;;;2.47;;
52186;SDS011;38161;53.020;6.598;2024-03-02T04:47:25;5.35;;;2.70;;
52186;SDS011;38161;53.020;6.598;2024-03-02T04:49:51;4.60;;;2.50;;
52186;SDS011;38161;53.020;6.598;2024-03-02T04:52:17;4.43;;;2.50;;
52186;SDS011;38161;53.020;6.598;2024-03-02T04:54:43;4.65;;;2.70;;
52186;SDS011;38161;53.020;6.598;2024-03-02T04:57:38;4.78;;;2.55;;
52186;SDS011;38161;53.020;6.598;2024-03-02T05:00:04;4.53;;;2.43;;
52186;SDS011;38161;53.020;6.598;2024-03-02T05:02:32;5.72;;;2.40;;
52186;SDS011;38161;53.020;6.598;2024-03-02T05:04:58;6.05;;;2.55;;
52186;SDS011;38161;53.020;6.598;2024-03-02T05:07:23;4.40;;;2.63;;
52186;SDS011;38161;53.020;6.598;2024-03-02T05:09:49;4.80;;;2.63;;
52186;SDS011;38161;53.020;6.598;2024-03-02T05:12:15;5.50;;;2.60;;
52186;SDS011;38161;53.020;6.598;2024-03-02T05:14:59;4.65;;;2.45;;
52186;SDS011;38161;53.020;6.598;2024-03-02T05:17:25;4.37;;;2.50;;
52186;SDS011;38161;53.020;6.598;2024-03-02T05:19:51;5.23;;;2.90;;
52186;SDS011;38161;53.020;6.598;2024-03-02T05:22:16;4.57;;;2.60;;
52186;SDS011;38161;53.020;6.598;2024-03-02T05:24:42;5.17;;;3.17;;
52186;SDS011;38161;53.020;6.598;2024-03-02T05:27:08;5.60;;;2.53;;
52186;SDS011;38161;53.020;6.598;2024-03-02T05:29:34;4.28;;;2.42;;
52186;SDS011;38161;53.020;6.598;2024-03-02T05:32:00;6.30;;;3.28;;
52186;SDS011;38161;53.020;6.598;2024-03-02T05:34:26;4.72;;;2.67;;
52186;SDS011;38161;53.020;6.598;2024-03-02T05:36:51;5.07;;;2.58;;
52186;SDS011;38161;53.020;6.598;2024-03-02T05:39:17;4.60;;;2.70;;
52186;SDS011;38161;53.020;6.598;2024-03-02T05:41:43;4.97;;;2.58;;
52186;SDS011;38161;53.020;6.598;2024-03-02T05:44:09;5.97;;;3.07;;
52186;SDS011;38161;53.020;6.598;2024-03-02T05:46:35;4.28;;;2.33;;
52186;SDS011;38161;53.020;6.598;2024-03-02T05:49:00;5.95;;;2.88;;
52186;SDS011;38161;53.020;6.598;2024-03-02T05:51:26;6.28;;;3.47;;
52186;SDS011;38161;53.020;6.598;2024-03-02T05:53:52;4.60;;;2.90;;
52186;SDS011;38161;53.020;6.598;2024-03-02T05:56:18;5.05;;;3.15;;
52186;SDS011;38161;53.020;6.598;2024-03-02T05:58:44;4.03;;;2.37;;
52186;SDS011;38161;53.020;6.598;2024-03-02T06:01:28;4.43;;;2.85;;
52186;SDS011;38161;53.020;6.598;2024-03-02T06:03:55;7.93;;;3.03;;
52186;SDS011;38161;53.020;6.598;2024-03-02T06:06:22;4.43;;;2.78;;
52186;SDS011;38161;53.020;6.598;2024-03-02T06:08:48;6.00;;;3.20;;
52186;SDS011;38161;53.020;6.598;2024-03-02T06:11:14;5.80;;;2.90;;
52186;SDS011;38161;53.020;6.598;2024-03-02T06:13:39;5.80;;;3.00;;
52186;SDS011;38161;53.020;6.598;2024-03-02T06:16:05;5.35;;;3.05;;
52186;SDS011;38161;53.020;6.598;2024-03-02T06:18:31;6.00;;;3.33;;
52186;SDS011;38161;53.020;6.598;2024-03-02T06:20:57;6.15;;;3.42;;
52186;SDS011;38161;53.020;6.598;2024-03-02T06:23:23;4.50;;;2.87;;
52186;SDS011;38161;53.020;6.598;2024-03-02T06:25:49;4.65;;;2.80;;
52186;SDS011;38161;53.020;6.598;2024-03-02T06:28:15;5.22;;;3.22;;
52186;SDS011;38161;53.020;6.598;2024-03-02T06:30:41;6.20;;;2.92;;
52186;SDS011;38161;53.020;6.598;2024-03-02T06:33:08;6.47;;;2.88;;
52186;SDS011;38161;53.020;6.598;2024-03-02T06:35:34;4.68;;;2.75;;
52186;SDS011;38161;53.020;6.598;2024-03-02T06:38:00;4.65;;;2.67;;
52186;SDS011;38161;53.020;6.598;2024-03-02T06:40:26;6.32;;;3.05;;
52186;SDS011;38161;53.020;6.598;2024-03-02T06:42:52;4.97;;;3.10;;
52186;SDS011;38161;53.020;6.598;2024-03-02T06:45:18;4.47;;;2.60;;
52186;SDS011;38161;53.020;6.598;2024-03-02T06:47:44;6.67;;;2.93;;
52186;SDS011;38161;53.020;6.598;2024-03-02T06:50:10;6.45;;;2.70;;
52186;SDS011;38161;53.020;6.598;2024-03-02T06:52:36;5.78;;;2.85;;
52186;SDS011;38161;53.020;6.598;2024-03-02T06:55:02;3.85;;;2.50;;
52186;SDS011;38161;53.020;6.598;2024-03-02T06:57:29;5.18;;;2.80;;
52186;SDS011;38161;53.020;6.598;2024-03-02T06:59:55;4.97;;;2.92;;
52186;SDS011;38161;53.020;6.598;2024-03-02T07:02:26;4.80;;;2.85;;
52186;SDS011;38161;53.020;6.598;2024-03-02T07:04:55;5.82;;;2.95;;
52186;SDS011;38161;53.020;6.598;2024-03-02T07:07:21;4.78;;;2.85;;
52186;SDS011;38161;53.020;6.598;2024-03-02T07:09:46;6.23;;;3.00;;
52186;SDS011;38161;53.020;6.598;2024-03-02T07:12:13;6.05;;;2.78;;
52186;SDS011;38161;53.020;6.598;2024-03-02T07:14:39;4.90;;;2.78;;
52186;SDS011;38161;53.020;6.598;2024-03-02T07:17:23;5.22;;;2.67;;
52186;SDS011;38161;53.020;6.598;2024-03-02T07:19:50;4.85;;;2.78;;
52186;SDS011;38161;53.020;6.598;2024-03-02T07:22:15;4.87;;;2.80;;
52186;SDS011;38161;53.020;6.598;2024-03-02T07:24:41;6.53;;;3.23;;
52186;SDS011;38161;53.020;6.598;2024-03-02T07:27:08;4.53;;;2.70;;
52186;SDS011;38161;53.020;6.598;2024-03-02T07:29:34;5.53;;;3.05;;
52186;SDS011;38161;53.020;6.598;2024-03-02T07:32:00;6.75;;;3.30;;
52186;SDS011;38161;53.020;6.598;2024-03-02T07:34:26;5.88;;;2.60;;
52186;SDS011;38161;53.020;6.598;2024-03-02T07:36:52;6.43;;;3.37;;
52186;SDS011;38161;53.020;6.598;2024-03-02T07:39:18;5.70;;;3.10;;
52186;SDS011;38161;53.020;6.598;2024-03-02T07:41:45;6.32;;;3.00;;
52186;SDS011;38161;53.020;6.598;2024-03-02T07:46:43;4.90;;;2.72;;
52186;SDS011;38161;53.020;6.598;2024-03-02T07:49:09;7.90;;;3.63;;
52186;SDS011;38161;53.020;6.598;2024-03-02T07:51:35;5.35;;;3.00;;
52186;SDS011;38161;53.020;6.598;2024-03-02T07:54:03;4.70;;;3.20;;
52186;SDS011;38161;53.020;6.598;2024-03-02T07:56:29;4.78;;;3.20;;
52186;SDS011;38161;53.020;6.598;2024-03-02T07:58:55;8.43;;;3.20;;
52186;SDS011;38161;53.020;6.598;2024-03-02T08:01:26;5.03;;;3.13;;
52186;SDS011;38161;53.020;6.598;2024-03-02T08:03:54;4.72;;;2.88;;
52186;SDS011;38161;53.020;6.598;2024-03-02T08:06:23;4.53;;;2.90;;
52186;SDS011;38161;53.020;6.598;2024-03-02T08:08:58;5.25;;;2.92;;
52186;SDS011;38161;53.020;6.598;2024-03-02T08:11:25;4.78;;;2.88;;
52186;SDS011;38161;53.020;6.598;2024-03-02T08:13:52;5.88;;;2.97;;
52186;SDS011;38161;53.020;6.598;2024-03-02T08:16:20;4.78;;;2.50;;
52186;SDS011;38161;53.020;6.598;2024-03-02T08:18:49;3.72;;;2.00;;
52186;SDS011;38161;53.020;6.598;2024-03-02T08:21:14;5.88;;;2.58;;
52186;SDS011;38161;53.020;6.598;2024-03-02T08:23:41;3.63;;;2.20;;
52186;SDS011;38161;53.020;6.598;2024-03-02T08:26:08;2.55;;;1.60;;
52186;SDS011;38161;53.020;6.598;2024-03-02T08:31:02;3.38;;;1.67;;
52186;SDS011;38161;53.020;6.598;2024-03-02T08:33:28;4.35;;;1.95;;
52186;SDS011;38161;53.020;6.598;2024-03-02T08:35:55;3.55;;;2.20;;
52186;SDS011;38161;53.020;6.598;2024-03-02T08:38:21;3.15;;;1.98;;
52186;SDS011;38161;53.020;6.598;2024-03-02T08:40:47;2.55;;;1.67;;
52186;SDS011;38161;53.020;6.598;2024-03-02T08:43:14;4.30;;;2.10;;
52186;SDS011;38161;53.020;6.598;2024-03-02T08:45:40;2.60;;;1.80;;
52186;SDS011;38161;53.020;6.598;2024-03-02T08:48:09;4.28;;;1.88;;
52186;SDS011;38161;53.020;6.598;2024-03-02T08:50:35;4.63;;;2.15;;
52186;SDS011;38161;53.020;6.598;2024-03-02T08:53:02;2.85;;;1.50;;
52186;SDS011;38161;53.020;6.598;2024-03-02T08:55:29;3.50;;;1.55;;
52186;SDS011;38161;53.020;6.598;2024-03-02T08:57:55;3.88;;;1.60;;
52186;SDS011;38161;53.020;6.598;2024-03-02T09:00:21;3.30;;;1.80;;
52186;SDS011;38161;53.020;6.598;2024-03-02T09:02:47;3.53;;;1.73;;
52186;SDS011;38161;53.020;6.598;2024-03-02T09:05:13;4.10;;;1.70;;
52186;SDS011;38161;53.020;6.598;2024-03-02T09:07:39;3.67;;;1.70;;
52186;SDS011;38161;53.020;6.598;2024-03-02T09:10:05;2.97;;;1.75;;
52186;SDS011;38161;53.020;6.598;2024-03-02T09:12:32;4.13;;;1.60;;
52186;SDS011;38161;53.020;6.598;2024-03-02T09:14:59;2.63;;;1.40;;
52186;SDS011;38161;53.020;6.598;2024-03-02T09:17:26;3.15;;;1.42;;
52186;SDS011;38161;53.020;6.598;2024-03-02T09:19:52;2.15;;;1.20;;
52186;SDS011;38161;53.020;6.598;2024-03-02T09:22:18;3.05;;;1.38;;
52186;SDS011;38161;53.020;6.598;2024-03-02T09:24:44;2.58;;;1.25;;
52186;SDS011;38161;53.020;6.598;2024-03-02T09:27:10;2.58;;;1.25;;
52186;SDS011;38161;53.020;6.598;2024-03-02T09:29:36;4.22;;;1.13;;
52186;SDS011;38161;53.020;6.598;2024-03-02T09:32:02;1.77;;;1.10;;
52186;SDS011;38161;53.020;6.598;2024-03-02T09:34:28;2.97;;;1.20;;
52186;SDS011;38161;53.020;6.598;2024-03-02T09:36:54;3.17;;;1.17;;
52186;SDS011;38161;53.020;6.598;2024-03-02T09:39:20;2.50;;;0.90;;
52186;SDS011;38161;53.020;6.598;2024-03-02T09:41:45;6.13;;;1.20;;
52186;SDS011;38161;53.020;6.598;2024-03-02T09:44:13;2.72;;;1.00;;
52186;SDS011;38161;53.020;6.598;2024-03-02T09:46:39;1.63;;;0.85;;
52186;SDS011;38161;53.020;6.598;2024-03-02T09:49:05;3.40;;;1.08;;
52186;SDS011;38161;53.020;6.598;2024-03-02T09:51:31;3.20;;;1.10;;
52186;SDS011;38161;53.020;6.598;2024-03-02T09:53:57;2.75;;;1.02;;
52186;SDS011;38161;53.020;6.598;2024-03-02T09:56:25;17.83;;;1.75;;
52186;SDS011;38161;53.020;6.598;2024-03-02T09:58:51;1.90;;;1.03;;
52186;SDS011;38161;53.020;6.598;2024-03-02T10:01:17;1.77;;;1.00;;
52186;SDS011;38161;53.020;6.598;2024-03-02T10:03:44;3.10;;;1.17;;
52186;SDS011;38161;53.020;6.598;2024-03-02T10:08:46;2.85;;;1.27;;
52186;SDS011;38161;53.020;6.598;2024-03-02T10:14:11;3.33;;;1.40;;
52186;SDS011;38161;53.020;6.598;2024-03-02T10:16:38;2.20;;;1.13;;
52186;SDS011;38161;53.020;6.598;2024-03-02T10:19:21;3.28;;;1.73;;
52186;SDS011;38161;53.020;6.598;2024-03-02T10:21:48;2.25;;;1.20;;
52186;SDS011;38161;53.020;6.598;2024-03-02T10:24:20;2.95;;;1.40;;
52186;SDS011;38161;53.020;6.598;2024-03-02T10:26:48;3.55;;;1.60;;
52186;SDS011;38161;53.020;6.598;2024-03-02T10:29:14;2.78;;;1.50;;
52186;SDS011;38161;53.020;6.598;2024-03-02T10:31:44;3.33;;;1.33;;
52186;SDS011;38161;53.020;6.598;2024-03-02T10:34:13;3.15;;;1.35;;
52186;SDS011;38161;53.020;6.598;2024-03-02T10:36:42;1.95;;;1.10;;
52186;SDS011;38161;53.020;6.598;2024-03-02T10:39:08;3.03;;;1.52;;
52186;SDS011;38161;53.020;6.598;2024-03-02T10:41:36;4.13;;;1.52;;
52186;SDS011;38161;53.020;6.598;2024-03-02T10:44:03;2.40;;;1.52;;
52186;SDS011;38161;53.020;6.598;2024-03-02T10:46:31;4.15;;;1.45;;
52186;SDS011;38161;53.020;6.598;2024-03-02T10:48:58;3.22;;;1.35;;
52186;SDS011;38161;53.020;6.598;2024-03-02T10:51:28;2.50;;;1.20;;
52186;SDS011;38161;53.020;6.598;2024-03-02T10:54:00;2.63;;;1.42;;
52186;SDS011;38161;53.020;6.598;2024-03-02T11:01:50;2.05;;;0.90;;
52186;SDS011;38161;53.020;6.598;2024-03-02T11:04:18;2.45;;;1.10;;
52186;SDS011;38161;53.020;6.598;2024-03-02T11:06:50;2.60;;;1.38;;
52186;SDS011;38161;53.020;6.598;2024-03-02T11:09:21;3.03;;;1.20;;
52186;SDS011;38161;53.020;6.598;2024-03-02T11:12:03;2.20;;;1.20;;
52186;SDS011;38161;53.020;6.598;2024-03-02T11:14:37;2.27;;;1.13;;
52186;SDS011;38161;53.020;6.598;2024-03-02T11:17:09;3.65;;;1.35;;
52186;SDS011;38161;53.020;6.598;2024-03-02T11:19:38;3.42;;;1.15;;
52186;SDS011;38161;53.020;6.598;2024-03-02T11:22:05;4.47;;;1.30;;
52186;SDS011;38161;53.020;6.598;2024-03-02T11:24:32;3.85;;;1.50;;
52186;SDS011;38161;53.020;6.598;2024-03-02T11:26:58;3.08;;;1.25;;
52186;SDS011;38161;53.020;6.598;2024-03-02T11:32:18;3.20;;;1.60;;
52186;SDS011;38161;53.020;6.598;2024-03-02T11:34:48;2.75;;;1.40;;
52186;SDS011;38161;53.020;6.598;2024-03-02T11:37:15;3.67;;;1.63;;
52186;SDS011;38161;53.020;6.598;2024-03-02T11:39:43;4.70;;;1.38;;
52186;SDS011;38161;53.020;6.598;2024-03-02T11:42:10;3.00;;;1.33;;
52186;SDS011;38161;53.020;6.598;2024-03-02T11:44:39;5.00;;;1.35;;
52186;SDS011;38161;53.020;6.598;2024-03-02T11:47:08;2.60;;;1.30;;
52186;SDS011;38161;53.020;6.598;2024-03-02T11:49:40;2.85;;;0.93;;
52186;SDS011;38161;53.020;6.598;2024-03-02T11:52:08;3.25;;;1.10;;
52186;SDS011;38161;53.020;6.598;2024-03-02T11:54:39;1.92;;;1.05;;
52186;SDS011;38161;53.020;6.598;2024-03-02T11:57:12;3.47;;;1.33;;
52186;SDS011;38161;53.020;6.598;2024-03-02T11:59:40;4.13;;;1.45;;
52186;SDS011;38161;53.020;6.598;2024-03-02T12:02:06;2.10;;;1.30;;
52186;SDS011;38161;53.020;6.598;2024-03-02T12:04:32;2.28;;;1.20;;
52186;SDS011;38161;53.020;6.598;2024-03-02T12:06:59;2.78;;;1.20;;
52186;SDS011;38161;53.020;6.598;2024-03-02T12:09:27;2.88;;;1.10;;
52186;SDS011;38161;53.020;6.598;2024-03-02T12:14:29;3.20;;;1.10;;
52186;SDS011;38161;53.020;6.598;2024-03-02T12:16:56;2.05;;;1.00;;
52186;SDS011;38161;53.020;6.598;2024-03-02T12:19:24;1.40;;;0.88;;
52186;SDS011;38161;53.020;6.598;2024-03-02T12:21:50;2.38;;;1.13;;
52186;SDS011;38161;53.020;6.598;2024-03-02T12:24:17;2.42;;;1.30;;
52186;SDS011;38161;53.020;6.598;2024-03-02T12:26:43;2.15;;;1.33;;
52186;SDS011;38161;53.020;6.598;2024-03-02T12:29:09;3.28;;;1.40;;
52186;SDS011;38161;53.020;6.598;2024-03-02T12:31:35;3.13;;;1.40;;
52186;SDS011;38161;53.020;6.598;2024-03-02T12:34:02;2.63;;;1.40;;
52186;SDS011;38161;53.020;6.598;2024-03-02T12:36:29;6.20;;;1.90;;
52186;SDS011;38161;53.020;6.598;2024-03-02T12:38:55;3.95;;;2.38;;
52186;SDS011;38161;53.020;6.598;2024-03-02T12:41:21;6.13;;;1.88;;
52186;SDS011;38161;53.020;6.598;2024-03-02T12:43:46;2.85;;;1.90;;
52186;SDS011;38161;53.020;6.598;2024-03-02T12:46:12;3.90;;;2.10;;
52186;SDS011;38161;53.020;6.598;2024-03-02T12:48:38;3.55;;;2.13;;
52186;SDS011;38161;53.020;6.598;2024-03-02T12:51:06;3.80;;;2.25;;
52186;SDS011;38161;53.020;6.598;2024-03-02T12:53:32;3.13;;;2.10;;
52186;SDS011;38161;53.020;6.598;2024-03-02T12:55:58;3.92;;;2.47;;
52186;SDS011;38161;53.020;6.598;2024-03-02T12:58:24;5.60;;;2.70;;
52186;SDS011;38161;53.020;6.598;2024-03-02T13:01:05;4.15;;;3.00;;
52186;SDS011;38161;53.020;6.598;2024-03-02T13:03:34;5.88;;;3.38;;
52186;SDS011;38161;53.020;6.598;2024-03-02T13:06:04;6.60;;;3.50;;
52186;SDS011;38161;53.020;6.598;2024-03-02T13:08:31;5.30;;;3.58;;
52186;SDS011;38161;53.020;6.598;2024-03-02T13:10:58;5.90;;;3.50;;
52186;SDS011;38161;53.020;6.598;2024-03-02T13:13:24;5.97;;;3.38;;
52186;SDS011;38161;53.020;6.598;2024-03-02T13:15:50;6.03;;;3.50;;
52186;SDS011;38161;53.020;6.598;2024-03-02T13:18:19;6.25;;;4.00;;
52186;SDS011;38161;53.020;6.598;2024-03-02T13:20:45;6.18;;;3.63;;
52186;SDS011;38161;53.020;6.598;2024-03-02T13:23:11;4.60;;;3.70;;
52186;SDS011;38161;53.020;6.598;2024-03-02T13:25:37;5.05;;;3.90;;
52186;SDS011;38161;53.020;6.598;2024-03-02T13:28:02;5.85;;;3.80;;
52186;SDS011;38161;53.020;6.598;2024-03-02T13:30:32;5.85;;;4.20;;
52186;SDS011;38161;53.020;6.598;2024-03-02T13:32:58;5.38;;;3.97;;
52186;SDS011;38161;53.020;6.598;2024-03-02T13:35:24;7.88;;;4.70;;
52186;SDS011;38161;53.020;6.598;2024-03-02T13:37:49;7.05;;;4.38;;
52186;SDS011;38161;53.020;6.598;2024-03-02T13:40:16;6.70;;;4.00;;
52186;SDS011;38161;53.020;6.598;2024-03-02T13:42:45;6.38;;;4.50;;
52186;SDS011;38161;53.020;6.598;2024-03-02T13:45:12;5.82;;;4.18;;
52186;SDS011;38161;53.020;6.598;2024-03-02T13:47:38;5.78;;;4.45;;
52186;SDS011;38161;53.020;6.598;2024-03-02T13:50:04;5.30;;;3.80;;
52186;SDS011;38161;53.020;6.598;2024-03-02T13:52:32;6.90;;;4.70;;
52186;SDS011;38161;53.020;6.598;2024-03-02T13:54:58;4.28;;;3.53;;
52186;SDS011;38161;53.020;6.598;2024-03-02T13:57:24;5.82;;;4.10;;
52186;SDS011;38161;53.020;6.598;2024-03-02T13:59:50;7.13;;;4.28;;
52186;SDS011;38161;53.020;6.598;2024-03-02T14:02:17;5.63;;;4.45;;
52186;SDS011;38161;53.020;6.598;2024-03-02T14:04:43;5.18;;;3.63;;
52186;SDS011;38161;53.020;6.598;2024-03-02T14:07:09;7.20;;;3.85;;
52186;SDS011;38161;53.020;6.598;2024-03-02T14:09:38;5.15;;;2.88;;
52186;SDS011;38161;53.020;6.598;2024-03-02T14:12:04;5.38;;;2.95;;
52186;SDS011;38161;53.020;6.598;2024-03-02T14:14:31;3.95;;;2.47;;
52186;SDS011;38161;53.020;6.598;2024-03-02T14:16:57;5.05;;;2.58;;
52186;SDS011;38161;53.020;6.598;2024-03-02T14:19:28;4.38;;;2.45;;
52186;SDS011;38161;53.020;6.598;2024-03-02T14:21:54;5.20;;;2.58;;
52186;SDS011;38161;53.020;6.598;2024-03-02T14:24:21;3.75;;;2.28;;
52186;SDS011;38161;53.020;6.598;2024-03-02T14:26:53;2.85;;;2.22;;
52186;SDS011;38161;53.020;6.598;2024-03-02T14:29:19;3.78;;;2.10;;
52186;SDS011;38161;53.020;6.598;2024-03-02T14:31:45;4.18;;;1.90;;
52186;SDS011;38161;53.020;6.598;2024-03-02T14:34:13;4.38;;;1.70;;
52186;SDS011;38161;53.020;6.598;2024-03-02T14:36:40;3.38;;;1.73;;
52186;SDS011;38161;53.020;6.598;2024-03-02T14:39:08;3.55;;;1.70;;
52186;SDS011;38161;53.020;6.598;2024-03-02T14:41:36;3.35;;;1.77;;
52186;SDS011;38161;53.020;6.598;2024-03-02T14:44:02;2.65;;;1.42;;
52186;SDS011;38161;53.020;6.598;2024-03-02T14:46:28;3.35;;;1.70;;
52186;SDS011;38161;53.020;6.598;2024-03-02T14:48:55;3.30;;;1.50;;
52186;SDS011;38161;53.020;6.598;2024-03-02T14:51:21;4.25;;;1.83;;
52186;SDS011;38161;53.020;6.598;2024-03-02T14:53:47;2.97;;;1.52;;
52186;SDS011;38161;53.020;6.598;2024-03-02T14:56:16;3.40;;;1.50;;
52186;SDS011;38161;53.020;6.598;2024-03-02T14:58:43;2.63;;;1.23;;
52186;SDS011;38161;53.020;6.598;2024-03-02T15:01:08;2.05;;;1.40;;
52186;SDS011;38161;53.020;6.598;2024-03-02T15:03:35;3.88;;;1.58;;
52186;SDS011;38161;53.020;6.598;2024-03-02T15:10:54;3.28;;;1.90;;
52186;SDS011;38161;53.020;6.598;2024-03-02T15:13:21;4.25;;;2.10;;
52186;SDS011;38161;53.020;6.598;2024-03-02T15:18:13;4.43;;;2.03;;
52186;SDS011;38161;53.020;6.598;2024-03-02T15:20:39;3.88;;;2.25;;
52186;SDS011;38161;53.020;6.598;2024-03-02T15:23:05;3.58;;;2.20;;
52186;SDS011;38161;53.020;6.598;2024-03-02T15:25:31;4.85;;;2.63;;
52186;SDS011;38161;53.020;6.598;2024-03-02T15:27:57;3.88;;;2.38;;
52186;SDS011;38161;53.020;6.598;2024-03-02T15:30:23;5.32;;;2.90;;